Time;durP1;ratioP1;P1;durP2;ratioP2;P2;SDS_P1;SDS_P2;PMS_P1;PMS_P2;Temp;Humidity;BMP_temperature;BMP_pressure;BME280_temperature;BME280_humidity;BME280_pressure;Samples;Min_cycle;Max_cycle;Signal;HPM_P1;HPM_P2
2022/12/15 00:41:16;;;;;;;;;;;;;;;6.79;56.29;99715.44;4992288;28;19929;-82
2022/12/15 00:44:03;;;;;;;;;;;;;;;6.55;56.78;99717.75;4987906;28;19918;-82
2022/12/15 00:46:54;;;;;;;;;;;;;;;5.95;58.63;99723.63;4975492;28;19923;-81
2022/12/15 01:20:19;;;;;;;;;;;;;;;7.01;57.47;99751.56;4976252;28;20379;-79
2022/12/15 01:23:03;;;;;;;;;;;;;;;7.07;57.68;99753.78;4991968;28;19918;-80
2022/12/15 01:25:49;;;;;;;;;;;;;;;7.06;57.72;99757.59;4964274;28;19922;-80
2022/12/15 01:28:33;;;;;;;;;;;;;;;7.05;57.68;99761.44;4971044;28;19918;-80
2022/12/15 01:31:17;;;;;;;;;;;;;;;7.07;59.15;99755.69;4966412;28;20295;-80
2022/12/15 01:34:02;;;;;;;;;;;;;;;7.05;59.00;99750.63;4964356;28;19918;-80
2022/12/15 01:36:46;;;;;;;;;;;;;;;7.09;58.99;99746.16;4981448;28;19918;-80
2022/12/15 01:40:43;;;;;;;;;;;;;;;7.12;59.06;99750.13;4966711;28;19918;-80
2022/12/15 01:42:35;;;;;;;;;;;;;;;7.05;59.08;99758.72;4965134;28;19919;-80
2022/12/15 01:45:22;;;;;;;;;;;;;;;7.06;58.99;99754.88;4956258;28;19918;-81
2022/12/15 01:48:10;;;;;;;;;;;;;;;7.07;58.27;99764.59;4954015;28;19926;-80
2022/12/15 01:50:54;;;;;;;;;;;;;;;7.05;58.54;99763.34;4977646;28;19930;-81
2022/12/15 01:54:02;;;;;;;;;;;;;;;7.09;58.88;99753.47;4967947;28;20108;-80
2022/12/15 01:56:52;;;;;;;;;;;;;;;7.08;60.86;99760.78;4982051;28;19918;-81
2022/12/15 01:59:45;;;;;;;;;;;;;;;7.13;60.25;99755.22;4977651;28;19918;-80
2022/12/15 02:02:31;;;;;;;;;;;;;;;7.14;60.58;99754.13;4981489;28;20308;-80
2022/12/15 02:05:16;;;;;;;;;;;;;;;7.17;59.75;99758.09;4960180;28;20315;-81
2022/12/15 02:08:02;;;;;;;;;;;;;;;7.15;59.13;99768.44;4969717;28;19922;-80
2022/12/15 02:10:52;;;;;;;;;;;;;;;7.15;58.94;99771.94;4990037;28;19918;-80
2022/12/15 02:13:53;;;;;;;;;;;;;;;7.16;58.64;99768.09;4969929;28;20294;-80
2022/12/15 02:16:38;;;;;;;;;;;;;;;7.20;59.29;99773.69;4987458;28;20383;-81
2022/12/15 02:19:25;;;;;;;;;;;;;;;7.18;60.34;99765.91;4964175;28;19918;-81
2022/12/15 02:22:10;;;;;;;;;;;;;;;7.19;61.05;99761.28;4975083;28;19918;-80
2022/12/15 02:24:54;;;;;;;;;;;;;;;7.22;59.98;99777.66;4957889;28;19918;-82
2022/12/15 02:27:59;;;;;;;;;;;;;;;7.23;58.29;99773.06;4975809;28;19922;-82
2022/12/15 02:31:48;;;;;;;;;;;;;;;7.24;59.09;99769.25;4962321;28;19918;-81
2022/12/15 02:34:02;;;;;;;;;;;;;;;7.44;60.17;99776.75;4975963;28;19918;-81
2022/12/15 02:36:48;;;;;;;;;;;;;;;7.50;57.16;99756.53;4962742;28;19918;-81
2022/12/15 02:39:33;;;;;;;;;;;;;;;7.50;56.87;99756.53;4991423;28;19922;-80
2022/12/15 02:42:17;;;;;;;;;;;;;;;7.19;56.85;99764.00;4963709;28;19918;-81
2022/12/15 02:45:05;;;;;;;;;;;;;;;7.32;55.95;99765.75;4955989;28;19919;-81
2022/12/15 02:47:56;;;;;;;;;;;;;;;7.35;57.68;99748.91;4942430;29;19922;-80
2022/12/15 02:50:50;;;;;;;;;;;;;;;7.43;57.82;99761.63;4973094;28;20303;-80
2022/12/15 02:53:34;;;;;;;;;;;;;;;7.43;55.36;99756.22;4962111;28;20299;-80
2022/12/15 02:56:31;;;;;;;;;;;;;;;7.32;54.26;99761.13;4965576;28;19918;-79
2022/12/15 02:59:24;;;;;;;;;;;;;;;7.20;54.11;99763.69;4975544;28;20310;-79
2022/12/15 03:02:11;;;;;;;;;;;;;;;7.18;53.92;99756.97;4982220;28;19918;-80
2022/12/15 03:04:56;;;;;;;;;;;;;;;7.17;55.06;99747.28;4968263;28;19930;-80
2022/12/15 03:07:41;;;;;;;;;;;;;;;7.10;53.50;99755.06;4969549;28;19923;-80
2022/12/15 03:10:26;;;;;;;;;;;;;;;7.01;53.37;99752.34;4974222;28;19918;-80
2022/12/15 03:13:10;;;;;;;;;;;;;;;6.97;52.53;99756.78;4966662;28;19918;-80
2022/12/15 03:15:57;;;;;;;;;;;;;;;7.11;52.86;99756.69;4975057;28;19922;-80
2022/12/15 03:18:41;;;;;;;;;;;;;;;7.23;55.66;99771.16;4961357;28;19918;-80
2022/12/15 03:21:26;;;;;;;;;;;;;;;7.38;54.32;99780.72;4974509;28;19918;-80
2022/12/15 03:24:11;;;;;;;;;;;;;;;7.31;54.31;99783.88;4961974;28;19918;-80
2022/12/15 03:26:55;;;;;;;;;;;;;;;7.28;51.62;99781.00;4961547;28;19926;-80
2022/12/15 03:29:39;;;;;;;;;;;;;;;7.21;51.07;99769.88;4965449;28;19918;-80
2022/12/15 03:32:24;;;;;;;;;;;;;;;7.18;52.66;99765.09;4990090;28;20299;-80
2022/12/15 03:35:08;;;;;;;;;;;;;;;7.11;51.54;99759.38;4974707;28;20379;-80
2022/12/15 03:37:53;;;;;;;;;;;;;;;6.88;51.92;99772.19;4960760;28;19922;-79
2022/12/15 03:40:37;;;;;;;;;;;;;;;7.02;52.37;99777.47;4974818;28;19918;-80
2022/12/15 03:43:21;;;;;;;;;;;;;;;7.17;53.95;99785.13;4974130;28;20387;-80
2022/12/15 03:46:06;;;;;;;;;;;;;;;7.07;52.89;99780.81;4952007;28;19922;-80
2022/12/15 03:48:50;;;;;;;;;;;;;;;7.24;53.90;99798.97;4963015;28;19918;-79
2022/12/15 03:51:35;;;;;;;;;;;;;;;7.38;52.89;99804.25;4972742;28;19922;-80
2022/12/15 03:54:19;;;;;;;;;;;;;;;7.31;53.36;99810.91;4976320;28;19918;-80
2022/12/15 03:57:03;;;;;;;;;;;;;;;7.36;53.06;99806.50;4974306;28;19918;-79
2022/12/15 03:59:48;;;;;;;;;;;;;;;7.39;53.17;99806.66;4975924;28;20379;-79
2022/12/15 04:02:32;;;;;;;;;;;;;;;7.45;52.75;99812.72;4959860;28;20474;-80
2022/12/15 04:05:19;;;;;;;;;;;;;;;7.43;53.45;99810.31;4973214;28;19922;-80
2022/12/15 04:08:03;;;;;;;;;;;;;;;7.20;50.99;99812.34;4959207;28;19922;-80
2022/12/15 04:10:48;;;;;;;;;;;;;;;7.27;53.91;99815.38;4962678;28;20384;-78
2022/12/15 04:13:32;;;;;;;;;;;;;;;7.16;51.43;99821.41;4963578;28;19918;-79
2022/12/15 04:16:17;;;;;;;;;;;;;;;7.33;51.94;99824.13;4985044;28;19918;-79
2022/12/15 04:22:05;;;;;;;;;;;;;;;7.33;51.99;99832.25;4959761;28;19922;-79
2022/12/15 05:32:17;;;;;;;;;;;;;;;7.05;59.58;99866.84;4950757;28;19922;-79
2022/12/15 05:35:02;;;;;;;;;;;;;;;7.09;58.94;99870.50;4965289;28;19918;-80
2022/12/15 05:37:46;;;;;;;;;;;;;;;7.07;58.86;99872.72;4967307;28;19918;-80
2022/12/15 05:40:30;;;;;;;;;;;;;;;7.04;58.13;99888.78;4973937;28;19918;-80
2022/12/15 05:43:15;;;;;;;;;;;;;;;7.13;57.79;99903.13;4987088;28;19922;-80
2022/12/15 05:46:05;;;;;;;;;;;;;;;6.97;58.01;99902.72;4965043;28;19918;-79
2022/12/15 05:48:50;;;;;;;;;;;;;;;6.98;58.30;99907.03;5000352;28;19923;-82
2022/12/15 05:51:37;;;;;;;;;;;;;;;7.25;57.55;99908.75;4996768;28;19930;-81
2022/12/15 05:54:22;;;;;;;;;;;;;;;7.22;57.17;99914.75;5013480;28;19909;-82
2022/12/15 05:57:07;;;;;;;;;;;;;;;7.06;58.02;99906.25;4983102;28;19917;-82
2022/12/15 06:00:18;;;;;;;;;;;;;;;6.96;58.46;99916.56;4997424;28;19926;-81
2022/12/15 06:03:04;;;;;;;;;;;;;;;7.02;58.24;99907.19;4989450;28;19918;-80
2022/12/15 06:05:48;;;;;;;;;;;;;;;6.92;59.10;99912.88;4983316;28;20299;-80
2022/12/15 06:08:34;;;;;;;;;;;;;;;6.91;58.95;99917.47;4966684;28;20403;-80
2022/12/15 06:11:19;;;;;;;;;;;;;;;7.01;59.11;99908.31;4961557;28;19918;-80
2022/12/15 06:14:04;;;;;;;;;;;;;;;6.84;58.82;99920.63;4993647;28;20302;-80
2022/12/15 06:16:48;;;;;;;;;;;;;;;6.80;59.38;99937.78;4968098;28;19918;-80
2022/12/15 06:19:32;;;;;;;;;;;;;;;6.90;59.00;99942.13;4982038;28;19918;-79
2022/12/15 06:22:18;;;;;;;;;;;;;;;7.07;59.24;99947.59;4982176;28;19922;-80
2022/12/15 06:25:03;;;;;;;;;;;;;;;7.12;59.03;99950.19;4965914;28;19926;-80
2022/12/15 06:36:35;;;;;;;;;;;;;;;7.37;58.53;99990.06;5034216;23;19913;-85
2022/12/15 06:39:21;;;;;;;;;;;;;;;7.25;58.72;99992.56;5024797;28;19910;-83
2022/12/15 06:42:06;;;;;;;;;;;;;;;7.17;59.95;99996.00;5013752;28;19929;-85
2022/12/15 06:44:51;;;;;;;;;;;;;;;7.11;59.41;100008.06;5033065;28;19925;-82
2022/12/15 06:47:35;;;;;;;;;;;;;;;7.13;59.55;100011.25;5022173;28;19910;-81
2022/12/15 06:50:20;;;;;;;;;;;;;;;7.29;58.58;100010.56;5024585;28;19926;-80
2022/12/15 06:53:06;;;;;;;;;;;;;;;7.29;58.55;100012.47;5000944;28;20313;-81
2022/12/15 06:55:51;;;;;;;;;;;;;;;7.20;59.21;100017.03;4999536;28;20397;-81
2022/12/15 06:58:39;;;;;;;;;;;;;;;7.27;58.63;100012.75;4997815;28;19917;-81
2022/12/15 07:01:25;;;;;;;;;;;;;;;7.09;59.06;100018.38;5010177;28;19909;-82
2022/12/15 07:04:12;;;;;;;;;;;;;;;7.22;59.40;100017.50;5020111;28;19925;-81
2022/12/15 07:06:57;;;;;;;;;;;;;;;7.33;59.39;100018.84;5000821;28;19922;-81
2022/12/15 07:09:45;;;;;;;;;;;;;;;7.37;58.92;100006.28;5003756;28;20712;-81
2022/12/15 07:12:30;;;;;;;;;;;;;;;7.45;58.62;100008.25;5010611;28;19918;-81
2022/12/15 07:15:15;;;;;;;;;;;;;;;7.41;59.26;100015.41;4999274;28;19917;-80
2022/12/15 07:18:01;;;;;;;;;;;;;;;7.52;58.45;100019.41;4990485;28;20395;-81
2022/12/15 07:20:45;;;;;;;;;;;;;;;7.11;59.61;100024.28;5002784;28;19917;-80
2022/12/15 07:23:31;;;;;;;;;;;;;;;6.96;60.16;100028.16;4996852;28;19917;-81
2022/12/15 07:26:16;;;;;;;;;;;;;;;6.89;60.71;100033.22;4996205;28;19917;-79
2022/12/15 07:29:01;;;;;;;;;;;;;;;6.85;61.01;100038.44;4996663;28;20399;-80
2022/12/15 07:31:45;;;;;;;;;;;;;;;6.85;60.88;100043.03;4993778;28;20389;-79
2022/12/15 07:34:30;;;;;;;;;;;;;;;6.81;60.95;100048.25;5001785;28;19929;-81
2022/12/15 07:37:16;;;;;;;;;;;;;;;6.80;61.17;100054.78;4992217;28;19917;-81
2022/12/15 07:40:00;;;;;;;;;;;;;;;6.76;61.79;100058.38;4986333;28;19918;-81
2022/12/15 07:42:45;;;;;;;;;;;;;;;6.82;60.78;100066.06;4999473;28;19917;-81
2022/12/15 07:45:30;;;;;;;;;;;;;;;6.81;61.24;100069.06;5008352;28;19918;-82
2022/12/15 07:48:15;;;;;;;;;;;;;;;6.78;61.08;100091.28;5017293;28;19922;-81
2022/12/15 07:51:07;;;;;;;;;;;;;;;6.93;60.66;100092.84;5004005;28;19917;-80
2022/12/15 07:53:56;;;;;;;;;;;;;;;7.12;60.03;100080.75;5001965;28;19918;-81
2022/12/15 07:56:41;;;;;;;;;;;;;;;6.92;60.81;100092.03;5000255;28;19909;-82
2022/12/15 07:59:25;;;;;;;;;;;;;;;6.83;61.42;100105.50;4996929;28;19917;-79
2022/12/15 08:02:11;;;;;;;;;;;;;;;6.91;60.70;100103.19;4999905;28;19917;-79
2022/12/15 08:04:56;;;;;;;;;;;;;;;6.84;61.04;100103.59;4998752;28;20382;-80
2022/12/15 08:07:41;;;;;;;;;;;;;;;6.90;61.11;100110.47;5014422;28;20390;-80
2022/12/15 08:10:26;;;;;;;;;;;;;;;6.96;61.17;100113.88;5002686;28;19917;-81
2022/12/15 08:13:12;;;;;;;;;;;;;;;6.88;60.81;100116.19;5006441;28;19917;-79
2022/12/15 08:15:56;;;;;;;;;;;;;;;7.04;60.56;100124.75;5010489;28;20386;-80
2022/12/15 08:18:41;;;;;;;;;;;;;;;7.12;60.13;100121.28;5000772;28;19917;-80
2022/12/15 08:21:30;;;;;;;;;;;;;;;7.23;59.52;100122.66;4995789;28;20337;-80
2022/12/15 08:24:15;;;;;;;;;;;;;;;7.18;59.13;100101.16;4988107;28;19918;-80
2022/12/15 08:27:01;;;;;;;;;;;;;;;7.29;59.10;100107.09;4997749;28;19921;-78
2022/12/15 08:29:45;;;;;;;;;;;;;;;7.04;59.88;100108.53;5000113;28;20008;-79
2022/12/15 08:32:30;;;;;;;;;;;;;;;7.22;59.14;100104.81;4986468;28;20310;-79
2022/12/15 08:35:15;;;;;;;;;;;;;;;7.18;59.32;100094.94;4984803;28;20307;-80
2022/12/15 08:38:03;;;;;;;;;;;;;;;7.23;59.38;100103.72;4980716;28;20375;-81
2022/12/15 08:40:48;;;;;;;;;;;;;;;7.19;59.32;100091.13;4995722;28;19917;-79
2022/12/15 08:43:32;;;;;;;;;;;;;;;7.20;60.14;100093.53;4993058;28;19922;-79
2022/12/15 08:46:17;;;;;;;;;;;;;;;7.43;60.28;100093.50;5003829;28;19918;-80
2022/12/15 08:49:04;;;;;;;;;;;;;;;7.49;60.10;100093.06;5001495;28;19921;-79
2022/12/15 08:51:49;;;;;;;;;;;;;;;7.49;59.88;100084.97;5007475;28;20370;-79
2022/12/15 08:54:34;;;;;;;;;;;;;;;7.50;60.44;100086.56;5014863;28;19917;-79
2022/12/15 08:57:18;;;;;;;;;;;;;;;8.12;65.24;100079.19;5008088;28;19918;-80
2022/12/15 09:00:04;;;;;;;;;;;;;;;8.44;61.94;100082.63;4994263;28;19918;-79
2022/12/15 09:02:48;;;;;;;;;;;;;;;8.49;58.28;100085.19;5146482;23;19926;-79
2022/12/15 09:05:37;;;;;;;;;;;;;;;8.26;57.94;100081.75;4962836;28;20311;-79
2022/12/15 09:08:22;;;;;;;;;;;;;;;8.06;58.09;100087.75;4949709;28;19922;-79
2022/12/15 09:11:06;;;;;;;;;;;;;;;7.80;58.84;100092.28;4954026;29;20384;-79
2022/12/15 09:13:51;;;;;;;;;;;;;;;7.73;58.76;100098.94;4953009;28;19918;-79
2022/12/15 09:16:35;;;;;;;;;;;;;;;7.65;59.24;100101.59;4958337;28;19918;-79
2022/12/15 09:19:20;;;;;;;;;;;;;;;7.62;60.33;100100.28;4971143;28;19918;-79
2022/12/15 09:22:06;;;;;;;;;;;;;;;7.47;59.60;100100.69;4972665;28;19918;-79
2022/12/15 09:24:51;;;;;;;;;;;;;;;7.45;59.92;100105.63;4973797;28;19918;-79
2022/12/15 09:27:36;;;;;;;;;;;;;;;7.43;60.24;100096.22;4973197;28;19922;-79
2022/12/15 09:30:20;;;;;;;;;;;;;;;7.36;60.43;100101.28;4964173;28;19918;-79
2022/12/15 09:33:04;;;;;;;;;;;;;;;7.39;60.52;100090.63;4960754;28;19918;-78
2022/12/15 09:35:50;;;;;;;;;;;;;;;7.36;60.65;100091.25;4930575;28;20287;-79
2022/12/15 09:38:36;;;;;;;;;;;;;;;7.31;60.03;100094.09;4957462;28;19926;-79
2022/12/15 09:41:22;;;;;;;;;;;;;;;7.43;62.64;100079.97;4980615;28;19918;-79
2022/12/15 09:44:15;;;;;;;;;;;;;;;7.26;60.70;100080.69;4955577;28;19922;-79
2022/12/15 09:47:19;;;;;;;;;;;;;;;7.71;63.53;100082.22;4979097;28;20307;-79
2022/12/15 09:50:08;;;;;;;;;;;;;;;7.56;60.62;100084.53;4950313;28;19918;-79
2022/12/15 09:52:57;;;;;;;;;;;;;;;7.68;60.95;100080.13;4953084;28;19922;-79
2022/12/15 09:55:42;;;;;;;;;;;;;;;7.52;59.80;100095.16;4948011;28;19919;-79
2022/12/15 09:58:32;;;;;;;;;;;;;;;7.38;60.17;100099.84;4972757;28;20323;-80
2022/12/15 10:01:17;;;;;;;;;;;;;;;7.32;60.47;100107.28;4948394;28;20411;-79
2022/12/15 10:04:01;;;;;;;;;;;;;;;7.40;61.11;100107.66;4953425;28;20307;-79
2022/12/15 10:06:49;;;;;;;;;;;;;;;7.47;60.46;100097.97;4953800;28;19918;-79
2022/12/15 10:09:35;;;;;;;;;;;;;;;7.47;62.08;100108.81;4957392;29;19923;-79
2022/12/15 10:12:25;;;;;;;;;;;;;;;7.65;62.77;100098.88;4958977;28;19919;-79
2022/12/15 10:15:10;;;;;;;;;;;;;;;7.88;61.84;100070.66;4944247;28;19918;-79
2022/12/15 10:18:00;;;;;;;;;;;;;;;7.76;60.12;100066.94;4938942;29;19919;-79
2022/12/15 10:20:45;;;;;;;;;;;;;;;8.02;62.01;100060.53;4959187;28;19922;-79
2022/12/15 10:23:33;;;;;;;;;;;;;;;8.15;61.80;100051.47;4941805;28;19922;-79
2022/12/15 10:26:22;;;;;;;;;;;;;;;8.25;60.51;100063.91;4980760;28;20233;-78
2022/12/15 10:29:36;;;;;;;;;;;;;;;8.24;59.42;100094.81;4955355;29;19923;-79
2022/12/15 10:32:20;;;;;;;;;;;;;;;8.24;59.29;100086.69;4962079;28;19918;-79
2022/12/15 10:35:07;;;;;;;;;;;;;;;8.31;59.67;100095.19;4975137;28;19919;-79
2022/12/15 10:37:52;;;;;;;;;;;;;;;8.32;59.41;100102.22;4965972;29;19919;-79
2022/12/15 10:40:49;;;;;;;;;;;;;;;8.31;59.07;100110.66;4964084;28;19922;-79
2022/12/15 10:43:39;;;;;;;;;;;;;;;8.30;60.25;100101.72;4981459;28;19918;-79
2022/12/15 10:46:25;;;;;;;;;;;;;;;8.46;59.17;100102.06;5004032;28;19925;-78
2022/12/15 10:49:09;;;;;;;;;;;;;;;8.59;59.12;100103.84;4986909;28;19922;-80
2022/12/15 10:51:56;;;;;;;;;;;;;;;8.47;57.45;100103.69;4983033;28;19918;-82
2022/12/15 10:54:44;;;;;;;;;;;;;;;8.49;58.77;100102.22;4992912;28;20303;-81
2022/12/15 10:57:32;;;;;;;;;;;;;;;8.53;58.26;100094.28;4976350;28;19923;-82
2022/12/15 11:00:45;;;;;;;;;;;;;;;8.58;60.31;100094.91;4980125;28;19918;-82
2022/12/15 11:03:36;;;;;;;;;;;;;;;8.61;58.45;100081.84;4978109;28;19922;-82
2022/12/15 11:06:20;;;;;;;;;;;;;;;8.76;58.33;100065.91;4960275;28;19918;-81
2022/12/15 11:09:32;;;;;;;;;;;;;;;8.68;56.95;100055.88;4981978;28;19922;-81
2022/12/15 11:12:51;;;;;;;;;;;;;;;8.86;56.51;100052.03;4956478;28;19919;-81
2022/12/15 11:16:09;;;;;;;;;;;;;;;8.83;56.16;100046.47;4971115;28;19918;-80
2022/12/15 11:18:57;;;;;;;;;;;;;;;9.01;57.50;100054.28;4984295;28;19930;-83
2022/12/15 11:21:47;;;;;;;;;;;;;;;8.85;54.03;100057.78;4975178;28;19927;-83
2022/12/15 11:24:45;;;;;;;;;;;;;;;8.93;55.16;100051.56;4981905;28;19926;-80
2022/12/15 11:27:30;;;;;;;;;;;;;;;9.11;56.57;100050.44;4977430;28;19935;-81
2022/12/15 11:30:19;;;;;;;;;;;;;;;9.03;54.82;100051.25;4972746;28;19914;-80
2022/12/15 11:33:04;;;;;;;;;;;;;;;9.01;55.70;100045.34;4970820;28;19914;-79
2022/12/15 11:35:49;;;;;;;;;;;;;;;8.95;55.80;100031.13;4994927;28;19910;-81
2022/12/15 11:38:39;;;;;;;;;;;;;;;9.04;56.19;100019.50;4961284;28;20311;-83
2022/12/15 11:41:32;;;;;;;;;;;;;;;8.91;53.76;100010.41;4963035;29;19927;-82
2022/12/15 11:44:18;;;;;;;;;;;;;;;8.91;54.83;99999.56;4960083;28;20403;-82
2022/12/15 11:47:20;;;;;;;;;;;;;;;9.19;56.62;99983.72;4965006;28;19926;-82
2022/12/15 11:50:15;;;;;;;;;;;;;;;9.17;55.46;99973.19;4956396;28;19927;-82
2022/12/15 11:53:17;;;;;;;;;;;;;;;9.31;57.41;99971.06;4959915;28;19927;-83
2022/12/15 11:56:11;;;;;;;;;;;;;;;9.35;56.43;99972.00;4934594;29;19927;-81
2022/12/15 11:59:08;;;;;;;;;;;;;;;9.36;56.13;99970.88;4964426;28;19926;-82
2022/12/15 12:02:08;;;;;;;;;;;;;;;9.29;55.28;99954.34;4947192;28;19930;-83
2022/12/15 12:04:53;;;;;;;;;;;;;;;9.33;53.92;99949.84;4959190;28;19930;-82
2022/12/15 12:08:12;;;;;;;;;;;;;;;9.38;54.59;99938.81;4968257;28;19926;-81
2022/12/15 12:11:18;;;;;;;;;;;;;;;9.42;54.14;99923.47;4939639;29;19923;-81
2022/12/15 12:14:06;;;;;;;;;;;;;;;9.89;56.04;99936.94;4959334;28;19930;-81
2022/12/15 12:17:06;;;;;;;;;;;;;;;9.58;51.45;99931.06;4954747;28;19918;-80
2022/12/15 12:19:53;;;;;;;;;;;;;;;9.35;52.53;99925.88;4951624;28;19919;-82
2022/12/15 12:23:01;;;;;;;;;;;;;;;9.27;50.93;99928.63;4948669;29;20384;-80
2022/12/15 12:25:53;;;;;;;;;;;;;;;9.34;50.45;99920.81;4946913;28;19926;-81
2022/12/15 12:28:46;;;;;;;;;;;;;;;9.30;50.79;99920.63;4971815;28;19930;-80
2022/12/15 12:31:45;;;;;;;;;;;;;;;9.43;50.20;99919.63;4982424;28;19923;-80
2022/12/15 12:34:30;;;;;;;;;;;;;;;9.36;50.91;99905.78;4954133;28;20883;-79
2022/12/15 12:37:18;;;;;;;;;;;;;;;9.40;52.60;99897.75;4953122;29;19918;-79
2022/12/15 12:40:06;;;;;;;;;;;;;;;9.34;51.00;99891.75;4967636;28;19907;-81
2022/12/15 12:42:53;;;;;;;;;;;;;;;9.28;50.93;99884.91;4961422;28;19926;-86
2022/12/15 12:45:44;;;;;;;;;;;;;;;9.07;51.05;99877.81;4964372;28;19922;-80
2022/12/15 12:48:36;;;;;;;;;;;;;;;8.99;51.07;99884.84;4966315;28;19922;-81
2022/12/15 12:51:23;;;;;;;;;;;;;;;9.12;51.08;99891.22;4968042;28;19926;-81
2022/12/15 12:54:27;;;;;;;;;;;;;;;9.23;50.84;99890.53;4977774;28;19926;-80
2022/12/15 12:57:11;;;;;;;;;;;;;;;9.11;51.13;99884.97;4977910;28;20502;-80
2022/12/15 12:59:59;;;;;;;;;;;;;;;9.19;51.04;99876.03;4978256;28;19930;-80
2022/12/15 13:02:47;;;;;;;;;;;;;;;9.08;51.25;99872.09;4977646;28;19923;-80
2022/12/15 13:05:33;;;;;;;;;;;;;;;9.11;51.85;99874.13;4978627;28;19934;-81
2022/12/15 13:08:25;;;;;;;;;;;;;;;9.16;51.18;99868.53;4983920;28;19926;-80
2022/12/15 13:11:29;;;;;;;;;;;;;;;9.26;51.05;99870.06;4983603;28;19931;-79
2022/12/15 13:14:16;;;;;;;;;;;;;;;9.30;53.70;99866.38;4965354;29;19919;-80
2022/12/15 13:17:04;;;;;;;;;;;;;;;9.17;51.86;99851.13;4985036;28;19918;-79
2022/12/15 13:19:57;;;;;;;;;;;;;;;9.59;62.54;99857.44;4993207;28;19926;-80
2022/12/15 13:22:50;;;;;;;;;;;;;;;9.34;53.58;99858.41;4956212;28;19922;-86
2022/12/15 13:25:44;;;;;;;;;;;;;;;9.11;55.19;99857.06;4954702;28;19931;-85
2022/12/15 13:31:41;;;;;;;;;;;;;;;8.97;54.57;99852.66;5035855;23;19926;-85
2022/12/15 13:34:41;;;;;;;;;;;;;;;8.90;56.12;99846.94;5040345;23;19960;-86
2022/12/15 13:43:35;;;;;;;;;;;;;;;8.71;59.28;99870.13;5091342;23;19925;-88
2022/12/15 13:50:18;;;;;;;;;;;;;;;8.43;62.30;99881.34;5064866;23;19930;-87
2022/12/15 13:53:33;;;;;;;;;;;;;;;8.34;61.90;99891.41;5010469;28;22089;-87
2022/12/15 14:00:17;;;;;;;;;;;;;;;8.27;63.57;99904.63;5012020;23;19926;-86
2022/12/15 14:03:10;;;;;;;;;;;;;;;8.22;63.81;99912.91;5042961;23;19926;-86
2022/12/15 14:05:57;;;;;;;;;;;;;;;8.24;64.06;99905.22;4989140;28;20295;-88
2022/12/15 14:08:44;;;;;;;;;;;;;;;8.20;63.94;99909.69;4982190;28;19922;-87
2022/12/15 14:11:32;;;;;;;;;;;;;;;8.18;64.27;99911.91;4970932;28;19917;-86
2022/12/15 14:23:41;;;;;;;;;;;;;;;8.16;65.33;99896.00;5033762;23;19929;-86
2022/12/15 14:26:30;;;;;;;;;;;;;;;8.16;65.30;99877.06;4993734;28;19925;-87
2022/12/15 14:29:42;;;;;;;;;;;;;;;8.17;65.63;99867.03;5008579;28;19921;-86
2022/12/15 14:32:40;;;;;;;;;;;;;;;8.13;66.03;99860.63;4992059;23;19925;-87
2022/12/15 14:35:31;;;;;;;;;;;;;;;8.21;65.83;99857.13;4976745;28;19926;-87
2022/12/15 14:44:36;;;;;;;;;;;;;;;8.24;65.90;99853.78;5008249;23;20303;-87
2022/12/15 14:47:23;;;;;;;;;;;;;;;8.23;65.91;99848.69;4997188;28;19922;-87
2022/12/15 14:50:35;;;;;;;;;;;;;;;8.28;65.04;99843.88;5001231;28;19922;-87
2022/12/15 14:53:25;;;;;;;;;;;;;;;8.34;64.06;99831.00;5012818;23;19945;-87
2022/12/15 14:56:17;;;;;;;;;;;;;;;8.30;63.98;99838.19;5016926;23;19942;-87
2022/12/15 14:59:25;;;;;;;;;;;;;;;8.24;64.53;99834.81;5049713;23;19933;-87
2022/12/15 15:02:14;;;;;;;;;;;;;;;8.25;64.67;99825.59;4992894;28;19926;-88
2022/12/15 15:05:02;;;;;;;;;;;;;;;8.30;64.81;99822.72;5071012;23;19926;-88
2022/12/15 15:07:54;;;;;;;;;;;;;;;8.27;64.02;99817.94;5018295;23;19933;-88
2022/12/15 15:10:49;;;;;;;;;;;;;;;8.26;64.19;99800.09;5165594;23;19932;-88
2022/12/15 15:13:39;;;;;;;;;;;;;;;8.35;63.99;99802.81;5216792;23;19926;-87
2022/12/15 15:16:45;;;;;;;;;;;;;;;8.31;63.52;99791.03;5111516;23;19925;-87
2022/12/15 15:19:46;;;;;;;;;;;;;;;8.18;64.57;99789.28;5275270;23;19936;-88
2022/12/15 16:50:51;;;;;;;;;;;;;;;8.32;65.36;99568.63;4980043;23;19934;-84
2022/12/15 16:53:38;;;;;;;;;;;;;;;8.30;65.43;99561.94;4954395;28;19926;-83
2022/12/15 16:56:50;;;;;;;;;;;;;;;8.29;66.14;99566.53;4981680;28;19922;-84
2022/12/15 17:05:59;;;;;;;;;;;;;;;8.44;65.76;99541.59;4979546;23;19935;-84
2022/12/15 17:08:48;;;;;;;;;;;;;;;8.34;66.77;99533.88;4938881;29;19926;-84
2022/12/15 17:11:39;;;;;;;;;;;;;;;8.27;66.93;99530.06;4956989;28;19918;-83
2022/12/15 17:14:29;;;;;;;;;;;;;;;8.29;66.94;99533.22;4947987;29;19930;-84
2022/12/15 17:17:18;;;;;;;;;;;;;;;8.34;66.93;99536.56;4949814;29;20387;-84
2022/12/15 17:20:05;;;;;;;;;;;;;;;8.35;67.21;99550.91;4953202;28;20314;-83
2022/12/15 17:22:53;;;;;;;;;;;;;;;8.34;67.78;99550.13;4952691;29;19922;-84
2022/12/15 17:25:42;;;;;;;;;;;;;;;8.41;68.05;99547.69;4957841;28;19918;-85
2022/12/15 17:28:35;;;;;;;;;;;;;;;8.44;67.98;99533.47;4970586;28;19918;-86
2022/12/15 17:31:22;;;;;;;;;;;;;;;8.39;67.63;99533.66;4964780;28;19926;-86
2022/12/15 17:37:16;;;;;;;;;;;;;;;8.32;67.78;99540.75;5035025;23;19941;-85
2022/12/15 17:40:16;;;;;;;;;;;;;;;8.28;68.48;99550.63;4994758;28;19926;-86
2022/12/15 18:01:12;;;;;;;;;;;;;;;8.40;69.88;99577.81;5127368;23;19929;-84
2022/12/15 18:13:28;;;;;;;;;;;;;;;8.43;69.33;99586.06;5027266;23;19926;-85
2022/12/15 18:19:53;;;;;;;;;;;;;;;8.39;68.90;99582.44;5022432;23;19944;-86
2022/12/15 18:22:54;;;;;;;;;;;;;;;8.36;68.49;99571.47;4994233;23;19926;-84
2022/12/15 18:26:05;;;;;;;;;;;;;;;8.44;68.12;99562.47;5031310;23;20646;-87
2022/12/15 18:35:39;;;;;;;;;;;;;;;8.39;66.97;99528.25;5036417;23;20307;-87
2022/12/15 18:48:02;;;;;;;;;;;;;;;8.51;66.24;99503.94;5040760;23;19930;-84
2022/12/15 18:50:55;;;;;;;;;;;;;;;8.47;66.89;99500.31;4992954;23;19925;-83
2022/12/15 18:56:55;;;;;;;;;;;;;;;8.85;66.66;99486.59;5014625;23;19926;-84
2022/12/15 19:00:18;;;;;;;;;;;;;;;8.86;66.77;99487.38;4994708;23;19926;-85
2022/12/15 19:03:04;;;;;;;;;;;;;;;8.86;66.97;99484.66;4981316;28;19921;-86
2022/12/15 19:05:52;;;;;;;;;;;;;;;8.76;67.24;99477.75;4989302;28;19917;-86
2022/12/15 19:08:38;;;;;;;;;;;;;;;8.64;67.81;99464.13;5002946;28;19918;-84
2022/12/15 19:11:32;;;;;;;;;;;;;;;8.63;68.34;99453.66;4995536;28;19918;-85
2022/12/15 19:14:39;;;;;;;;;;;;;;;8.60;68.58;99449.69;5000227;28;19922;-86
2022/12/15 19:23:29;;;;;;;;;;;;;;;8.53;68.89;99436.66;4988357;28;19918;-87
2022/12/15 19:26:14;;;;;;;;;;;;;;;8.57;68.89;99440.31;4985639;28;19917;-87
2022/12/15 19:29:00;;;;;;;;;;;;;;;8.64;68.93;99441.66;4994318;28;19926;-86
2022/12/15 19:31:45;;;;;;;;;;;;;;;8.60;68.71;99428.00;4988890;28;19927;-86
2022/12/15 19:34:30;;;;;;;;;;;;;;;8.68;67.97;99429.84;4982270;28;20383;-87
2022/12/15 19:37:25;;;;;;;;;;;;;;;8.77;67.86;99429.75;4980406;28;19918;-89
2022/12/15 19:40:21;;;;;;;;;;;;;;;8.82;67.95;99437.69;4996619;28;19918;-87
2022/12/15 19:43:06;;;;;;;;;;;;;;;8.88;68.60;99461.53;4986526;28;19922;-88
2022/12/15 19:45:51;;;;;;;;;;;;;;;8.78;71.51;99470.09;4985099;28;19918;-87
2022/12/15 19:48:37;;;;;;;;;;;;;;;8.74;74.99;99476.47;4989297;28;19931;-87
2022/12/15 19:51:24;;;;;;;;;;;;;;;8.54;81.72;99470.75;4997175;28;19922;-88
2022/12/15 19:54:15;;;;;;;;;;;;;;;8.39;80.75;99452.41;4994675;28;19921;-86
2022/12/15 20:09:14;;;;;;;;;;;;;;;8.69;74.94;99343.91;5066131;23;19929;-87
2022/12/15 20:11:59;;;;;;;;;;;;;;;8.58;72.87;99328.06;5010831;28;19909;-94
2022/12/15 20:14:45;;;;;;;;;;;;;;;8.66;71.39;99322.91;5007133;28;19925;-86
2022/12/15 20:17:32;;;;;;;;;;;;;;;8.70;72.78;99323.81;5012366;28;21337;-85
2022/12/15 20:20:18;;;;;;;;;;;;;;;8.77;72.97;99338.41;4996017;28;20299;-86
2022/12/15 20:23:10;;;;;;;;;;;;;;;8.71;71.95;99352.50;5000770;28;19922;-86
2022/12/15 20:25:55;;;;;;;;;;;;;;;8.84;70.42;99357.59;4994210;28;19917;-81
2022/12/15 20:28:40;;;;;;;;;;;;;;;8.77;69.85;99353.88;4989317;28;19926;-86
2022/12/15 20:31:24;;;;;;;;;;;;;;;8.82;69.87;99368.00;4993798;28;19918;-87
2022/12/15 20:34:09;;;;;;;;;;;;;;;8.76;69.57;99369.34;4992622;28;19918;-85
2022/12/15 20:36:54;;;;;;;;;;;;;;;8.86;70.55;99381.66;5004403;28;19926;-85